createdAt,value
2022-11-23T06:24:34.903Z,59.64
2022-11-23T06:27:02.806Z,59.43
2022-11-23T06:29:31.032Z,58.94
2022-11-23T06:31:59.204Z,58.82
2022-11-23T06:34:32.841Z,59.05
2022-11-23T06:37:00.765Z,58.56
2022-11-23T06:39:28.664Z,58.99
2022-11-23T06:42:10.968Z,58.82
2022-11-23T06:44:45.793Z,58.34
2022-11-23T06:47:16.862Z,58.43
2022-11-23T06:49:46.314Z,58.41
2022-11-23T06:52:14.521Z,58.30
2022-11-23T06:54:42.472Z,58.71
2022-11-23T06:57:11.749Z,58.82
2022-11-23T06:59:44.907Z,58.34
2022-11-23T07:02:13.037Z,58.94
2022-11-23T07:04:40.923Z,58.60
2022-11-23T07:07:08.953Z,58.82
2022-11-23T07:09:37.046Z,58.57
2022-11-23T07:12:05.005Z,58.14
2022-11-23T07:14:34.223Z,58.43
2022-11-23T07:17:02.129Z,58.53
2022-11-23T07:19:30.285Z,58.57
2022-11-23T07:21:58.279Z,58.36
2022-11-23T07:24:26.220Z,58.55
2022-11-23T07:26:54.268Z,58.26
2022-11-23T07:29:22.165Z,58.08
2022-11-23T07:31:51.468Z,58.14
2022-11-23T07:34:19.404Z,57.94
2022-11-23T07:36:47.280Z,57.73
2022-11-23T07:39:15.425Z,57.76
2022-11-23T07:41:43.383Z,58.00
2022-11-23T07:44:11.309Z,57.28
2022-11-23T07:46:39.190Z,57.36
2022-11-23T07:49:08.679Z,57.39
2022-11-23T07:51:36.557Z,57.56
2022-11-23T07:54:04.629Z,57.09
2022-11-23T07:56:32.488Z,57.58
2022-11-23T07:59:00.402Z,57.43
2022-11-23T08:01:28.303Z,57.15
2022-11-23T08:03:56.725Z,57.01
2022-11-23T08:06:25.991Z,57.19
2022-11-23T08:08:55.544Z,56.86
2022-11-23T08:11:23.528Z,56.96
2022-11-23T08:13:51.406Z,56.75
2022-11-23T08:16:20.092Z,56.77
2022-11-23T08:18:50.715Z,57.15
2022-11-23T08:21:18.630Z,56.54
2022-11-23T08:23:47.912Z,56.52
2022-11-23T08:26:15.805Z,56.45
2022-11-23T08:28:43.686Z,56.86
2022-11-23T08:31:14.828Z,56.94
2022-11-23T08:33:42.715Z,56.39
2022-11-23T08:36:10.772Z,56.51
2022-11-23T08:38:38.858Z,56.69
2022-11-23T08:41:08.732Z,56.40
2022-11-23T08:43:36.764Z,56.39
2022-11-23T08:46:09.269Z,56.16
2022-11-23T08:48:38.952Z,56.58
2022-11-23T08:51:07.174Z,56.22
2022-11-23T08:53:35.122Z,56.16
2022-11-23T08:56:03.046Z,56.04
2022-11-23T08:58:32.505Z,56.01
2022-11-23T09:01:00.521Z,56.36
2022-11-23T09:03:28.424Z,55.96
2022-11-23T09:06:00.712Z,56.15
2022-11-23T09:08:28.608Z,56.12
2022-11-23T09:11:00.072Z,55.98
2022-11-23T09:13:27.983Z,55.97
2022-11-23T09:16:00.019Z,56.01
2022-11-23T09:18:28.000Z,56.14
2022-11-23T09:20:55.890Z,56.19
2022-11-23T09:23:23.755Z,55.59
2022-11-23T09:25:51.635Z,55.79
2022-11-23T09:28:19.780Z,55.83
2022-11-23T09:30:48.157Z,55.66
2022-11-23T09:33:17.441Z,55.72
2022-11-23T09:35:45.399Z,55.46
2022-11-23T09:38:13.421Z,56.00
2022-11-23T09:40:41.903Z,55.79
2022-11-23T09:43:20.824Z,55.32
2022-11-23T09:45:50.489Z,55.50
2022-11-23T09:48:36.267Z,55.39
2022-11-23T09:51:06.484Z,55.43
2022-11-23T09:53:35.969Z,55.44
2022-11-23T09:56:03.839Z,55.05
2022-11-23T09:58:33.770Z,55.46
2022-11-23T10:01:02.626Z,55.10
2022-11-23T10:03:33.752Z,55.07
2022-11-23T10:06:03.821Z,55.02
2022-11-23T10:08:40.773Z,55.22
2022-11-23T10:11:28.804Z,55.27
2022-11-23T10:13:59.230Z,55.30
2022-11-23T10:16:31.051Z,55.06
2022-11-23T10:19:03.629Z,55.42
2022-11-23T10:21:38.497Z,54.74
2022-11-23T10:24:13.321Z,55.01
2022-11-23T10:26:42.368Z,55.04
2022-11-23T10:29:13.443Z,54.68
2022-11-23T10:31:41.458Z,55.03
2022-11-23T10:34:12.568Z,54.67
2022-11-23T10:36:40.520Z,54.98
2022-11-23T10:39:15.450Z,54.66
2022-11-23T10:41:43.315Z,54.54
2022-11-23T10:44:28.960Z,54.53
2022-11-23T10:46:56.854Z,55.03
2022-11-23T10:49:27.587Z,54.55
2022-11-23T10:51:56.869Z,54.45
2022-11-23T10:54:30.529Z,54.78
2022-11-23T10:56:59.196Z,54.50
2022-11-23T10:59:32.764Z,54.37
2022-11-23T11:02:10.464Z,54.48
2022-11-23T11:04:39.800Z,55.03
2022-11-23T11:07:34.409Z,54.58
2022-11-23T11:10:04.315Z,54.20
2022-11-23T11:12:35.191Z,53.30
2022-11-23T11:15:11.260Z,53.23
2022-11-23T11:17:39.990Z,53.45
2022-11-23T11:20:31.219Z,53.92
2022-11-23T11:22:59.655Z,53.81
2022-11-23T11:25:29.753Z,53.70
2022-11-23T11:27:57.623Z,53.71
2022-11-23T11:30:25.863Z,53.60
2022-11-23T11:32:55.657Z,53.95
2022-11-23T11:35:26.339Z,53.74
2022-11-23T11:37:57.223Z,53.92
2022-11-23T11:40:27.413Z,54.03
2022-11-23T11:42:56.281Z,53.81
2022-11-23T11:45:25.849Z,54.01
2022-11-23T11:47:57.714Z,53.63
2022-11-23T11:50:31.410Z,53.80
2022-11-23T11:53:04.065Z,53.79
2022-11-23T11:55:37.591Z,53.61
2022-11-23T11:58:06.600Z,53.51
2022-11-23T12:00:35.665Z,53.73
2022-11-23T12:03:07.845Z,53.39
2022-11-23T12:05:39.319Z,53.43
2022-11-23T12:08:11.649Z,53.95
2022-11-23T12:10:41.785Z,53.72
2022-11-23T12:13:11.066Z,54.01
2022-11-23T12:15:49.366Z,53.70
2022-11-23T12:18:37.418Z,53.99
2022-11-23T12:21:05.862Z,53.71
2022-11-23T12:23:46.022Z,53.72
2022-11-23T12:26:20.225Z,53.90
2022-11-23T12:29:02.074Z,53.54
2022-11-23T12:31:39.398Z,53.85
2022-11-23T12:34:31.439Z,53.54
2022-11-23T12:37:10.068Z,53.69
2022-11-23T12:40:05.353Z,53.96
2022-11-23T12:42:36.711Z,53.96
2022-11-23T12:45:25.260Z,53.75
2022-11-23T12:47:58.551Z,53.60
2022-11-23T12:50:30.207Z,53.58
2022-11-23T12:53:03.587Z,53.42
2022-11-23T12:57:02.132Z,53.00
2022-11-23T12:59:34.678Z,53.22
2022-11-23T13:02:04.347Z,53.02
2022-11-23T13:04:49.192Z,53.32
2022-11-23T13:07:46.020Z,53.11
2022-11-23T13:10:41.945Z,53.02
2022-11-23T13:13:30.615Z,52.93
2022-11-23T13:16:15.747Z,52.94
2022-11-23T13:18:53.768Z,53.00
2022-11-23T13:21:28.539Z,53.43
2022-11-23T13:23:56.450Z,53.03
2022-11-23T13:26:24.633Z,53.21
2022-11-23T13:28:54.388Z,52.88
2022-11-23T13:31:24.797Z,52.83
2022-11-23T13:33:54.998Z,53.02
2022-11-23T13:40:03.955Z,53.22
2022-11-23T13:42:33.287Z,53.00
2022-11-23T13:45:25.863Z,53.13
2022-11-23T13:48:05.218Z,53.00
2022-11-23T13:50:33.177Z,52.99
2022-11-23T13:53:01.078Z,53.53
2022-11-23T13:55:32.644Z,53.36
2022-11-23T13:58:36.038Z,53.41
2022-11-23T14:01:05.380Z,53.84
2022-11-23T14:03:53.274Z,53.67
2022-11-23T14:06:27.430Z,53.19
2022-11-23T14:09:01.784Z,53.36
2022-11-23T14:11:30.682Z,53.23
2022-11-23T14:13:59.967Z,53.60
2022-11-23T14:16:39.655Z,53.37
2022-11-23T14:19:10.116Z,53.76
2022-11-23T14:21:39.606Z,53.70
2022-11-23T14:24:32.210Z,53.45
2022-11-23T14:27:46.128Z,53.57
2022-11-23T14:30:40.230Z,53.41
2022-11-23T14:33:17.424Z,53.68
2022-11-23T14:35:48.042Z,54.11
2022-11-23T14:38:48.133Z,53.58
2022-11-23T14:41:17.761Z,53.94
2022-11-23T14:43:46.014Z,53.58
2022-11-23T14:46:16.126Z,54.14
2022-11-23T14:48:45.855Z,53.93
2022-11-23T14:51:18.214Z,53.60
2022-11-23T14:53:48.865Z,54.11
2022-11-23T14:56:27.020Z,53.54
2022-11-23T14:58:55.283Z,53.71
2022-11-23T15:01:23.269Z,54.16
2022-11-23T15:03:58.963Z,54.24
2022-11-23T15:06:28.391Z,54.26
2022-11-23T15:09:01.169Z,53.84
2022-11-23T15:11:29.395Z,53.92
2022-11-23T15:14:03.182Z,54.01
2022-11-23T15:16:31.161Z,53.88
2022-11-23T15:19:00.466Z,53.82
2022-11-23T15:21:28.454Z,54.04
2022-11-23T15:23:57.374Z,54.05
2022-11-23T15:26:46.812Z,54.31
2022-11-23T15:29:30.227Z,54.85
2022-11-23T15:34:47.818Z,54.17
2022-11-23T15:37:15.758Z,54.46
2022-11-23T15:39:44.117Z,54.23
2022-11-23T15:42:12.076Z,54.30
2022-11-23T15:44:39.978Z,54.40
2022-11-23T15:47:08.072Z,54.43
2022-11-23T15:49:38.216Z,53.75
2022-11-23T15:52:07.606Z,54.39
2022-11-23T15:54:36.495Z,53.87
2022-11-23T15:57:04.697Z,53.85
2022-11-23T15:59:33.488Z,54.15
2022-11-23T16:02:01.996Z,53.94
2022-11-23T16:04:31.388Z,54.07
2022-11-23T16:06:59.940Z,54.41
2022-11-23T16:09:55.423Z,54.07
2022-11-23T16:12:28.228Z,54.08
2022-11-23T16:14:56.570Z,53.99
2022-11-23T16:17:25.216Z,54.17
2022-11-23T16:19:53.667Z,54.03
2022-11-23T16:22:27.214Z,54.05
2022-11-23T16:25:03.656Z,54.37
2022-11-23T16:27:31.616Z,54.36
2022-11-23T16:30:03.431Z,54.07
2022-11-23T16:32:32.267Z,54.38
2022-11-23T16:35:05.984Z,53.91
2022-11-23T16:37:33.890Z,53.96
2022-11-23T16:40:03.289Z,54.31
2022-11-23T16:42:31.226Z,54.09
2022-11-23T16:44:59.305Z,54.35
2022-11-23T16:47:28.208Z,53.93
2022-11-23T16:49:56.230Z,53.86
2022-11-23T16:52:24.279Z,54.39
2022-11-23T16:54:52.567Z,54.09
2022-11-23T16:57:25.381Z,54.16
2022-11-23T16:59:53.333Z,54.39
2022-11-23T17:02:21.287Z,54.46
2022-11-23T17:04:49.321Z,54.27
2022-11-23T17:07:17.881Z,54.39
2022-11-23T17:09:45.774Z,54.39
2022-11-23T17:12:15.907Z,54.13
2022-11-23T17:14:46.597Z,54.53
2022-11-23T17:17:17.405Z,54.00
2022-11-23T17:19:48.249Z,54.23
2022-11-23T17:22:16.569Z,54.20
2022-11-23T17:24:44.471Z,54.48
2022-11-23T17:27:13.699Z,54.23
2022-11-23T17:29:42.478Z,54.14
2022-11-23T17:32:12.548Z,54.35
2022-11-23T17:34:40.488Z,54.20
2022-11-23T17:37:10.136Z,54.70
2022-11-23T17:39:38.068Z,54.50
2022-11-23T17:42:06.043Z,54.63
2022-11-23T17:44:33.898Z,54.23
2022-11-23T17:47:01.821Z,54.72
2022-11-23T17:49:31.469Z,54.22
2022-11-23T17:51:59.834Z,54.57
2022-11-23T17:54:27.725Z,54.22
2022-11-23T17:56:57.719Z,54.70
2022-11-23T17:59:25.652Z,54.80
2022-11-23T18:01:53.626Z,54.37
2022-11-23T18:04:21.572Z,54.49
2022-11-23T18:06:50.881Z,54.66
2022-11-23T18:09:18.761Z,54.58
2022-11-23T18:11:46.659Z,54.36
2022-11-23T18:14:14.681Z,54.80
2022-11-23T18:16:42.534Z,54.30
2022-11-23T18:19:10.416Z,54.31
2022-11-23T18:21:38.373Z,54.52
2022-11-23T18:24:08.883Z,54.42
2022-11-23T18:26:36.812Z,54.42
2022-11-23T18:29:04.901Z,54.84
2022-11-23T18:31:32.914Z,54.28
2022-11-23T18:34:02.794Z,54.40
2022-11-23T18:36:30.686Z,54.33
2022-11-23T18:38:58.764Z,54.54
2022-11-23T18:41:28.310Z,54.88
2022-11-23T18:43:59.048Z,55.00
2022-11-23T18:46:29.378Z,55.05
2022-11-23T18:48:58.396Z,54.67
2022-11-23T18:51:26.423Z,54.26
2022-11-23T18:53:55.582Z,54.44
2022-11-23T18:56:23.452Z,54.55
2022-11-23T18:58:52.688Z,54.42
2022-11-23T19:01:21.536Z,54.88
2022-11-23T19:03:50.797Z,54.86
2022-11-23T19:06:19.405Z,54.58
2022-11-23T19:08:48.094Z,55.07
2022-11-23T19:11:17.957Z,54.65
2022-11-23T19:13:46.041Z,54.98
2022-11-23T19:16:20.971Z,54.77
2022-11-23T19:18:49.000Z,55.02
2022-11-23T19:21:17.218Z,55.29
2022-11-23T19:23:45.143Z,54.97
2022-11-23T19:26:13.071Z,55.14
2022-11-23T19:28:44.668Z,54.95
2022-11-23T19:31:13.316Z,55.16
2022-11-23T19:33:42.677Z,54.89
2022-11-23T19:36:11.514Z,54.91
2022-11-23T19:38:39.449Z,55.01
2022-11-23T19:41:07.398Z,54.93
2022-11-23T19:43:35.314Z,55.18
2022-11-23T19:46:04.202Z,55.51
2022-11-23T19:48:32.567Z,55.24
2022-11-23T19:51:02.379Z,55.32
2022-11-23T19:53:31.242Z,55.16
2022-11-23T19:56:03.375Z,55.20
2022-11-23T19:58:32.394Z,55.65
2022-11-23T20:01:01.155Z,55.03
2022-11-23T20:03:29.029Z,55.38
2022-11-23T20:05:57.680Z,55.59
2022-11-23T20:08:27.166Z,55.41
2022-11-23T20:10:55.171Z,55.51
2022-11-23T20:13:23.174Z,55.63
2022-11-23T20:15:51.102Z,55.85
2022-11-23T20:18:19.416Z,55.77
2022-11-23T20:20:48.058Z,55.59
2022-11-23T20:23:16.018Z,55.83
2022-11-23T20:25:45.413Z,55.43
2022-11-23T20:28:14.081Z,55.48
2022-11-23T20:30:42.487Z,55.43
2022-11-23T20:33:10.699Z,55.60
2022-11-23T20:35:38.761Z,55.86
2022-11-23T20:38:06.732Z,56.19
2022-11-23T20:40:34.601Z,55.98
2022-11-23T20:43:03.917Z,55.91
2022-11-23T20:45:31.845Z,55.77
2022-11-23T20:47:59.800Z,55.52
2022-11-23T20:50:28.027Z,55.66
2022-11-23T20:52:56.138Z,55.63
2022-11-23T20:55:24.395Z,55.57
2022-11-23T20:57:55.381Z,55.35
2022-11-23T21:00:28.001Z,55.73
2022-11-23T21:02:56.729Z,55.54
2022-11-23T21:05:24.821Z,55.75
2022-11-23T21:07:55.949Z,56.13
2022-11-23T21:10:41.275Z,56.51
2022-11-23T21:13:37.217Z,55.78
2022-11-23T21:16:18.180Z,55.97
2022-11-23T21:18:46.227Z,55.61
2022-11-23T21:21:14.127Z,56.51
2022-11-23T21:23:42.033Z,56.15
2022-11-23T21:26:09.977Z,56.48
2022-11-23T21:28:37.999Z,56.80
2022-11-23T21:31:08.798Z,56.60
2022-11-23T21:33:38.582Z,56.45
2022-11-23T21:36:07.449Z,56.28
2022-11-23T21:38:36.215Z,56.19
2022-11-23T21:41:04.771Z,56.76
2022-11-23T21:43:33.184Z,56.66
2022-11-23T21:46:01.558Z,56.84
2022-11-23T21:48:29.507Z,56.68
2022-11-23T21:51:02.957Z,56.51
2022-11-23T21:53:31.069Z,56.19
2022-11-23T21:56:01.936Z,56.58
2022-11-23T21:58:29.924Z,56.52
2022-11-23T22:01:04.457Z,56.00
2022-11-23T22:03:33.218Z,56.58
2022-11-23T22:06:02.549Z,56.21
2022-11-23T22:08:30.579Z,56.32
2022-11-23T22:10:58.608Z,56.16
2022-11-23T22:13:27.073Z,56.12
2022-11-23T22:15:55.012Z,55.83
2022-11-23T22:18:22.950Z,55.94
2022-11-23T22:20:50.920Z,56.14
2022-11-23T22:23:20.212Z,56.18
2022-11-23T22:25:48.352Z,56.00
2022-11-23T22:28:16.271Z,56.28
2022-11-23T22:30:44.153Z,56.33
2022-11-23T22:33:13.422Z,56.23
2022-11-23T22:35:41.405Z,56.21
2022-11-23T22:38:09.275Z,56.09
2022-11-23T22:40:38.599Z,56.85
2022-11-23T22:43:06.500Z,56.42
2022-11-23T22:45:34.504Z,56.77
2022-11-23T22:48:02.484Z,56.52
2022-11-23T22:50:30.333Z,56.22
2022-11-23T22:52:58.325Z,56.21
2022-11-23T22:55:26.224Z,56.15
2022-11-23T22:57:55.489Z,56.43
2022-11-23T23:00:23.712Z,55.91
2022-11-23T23:02:51.744Z,56.40
2022-11-23T23:05:19.929Z,56.18
2022-11-23T23:07:47.863Z,56.48
2022-11-23T23:10:15.952Z,55.88
2022-11-23T23:12:43.831Z,56.24
2022-11-23T23:15:13.347Z,56.07
2022-11-23T23:17:41.280Z,56.13
2022-11-23T23:20:10.208Z,56.41
2022-11-23T23:22:38.791Z,56.20
2022-11-23T23:25:08.463Z,56.07
2022-11-23T23:27:36.348Z,56.53
2022-11-23T23:30:04.500Z,56.50
2022-11-23T23:32:33.846Z,56.00
2022-11-23T23:35:02.148Z,55.90
2022-11-23T23:37:30.988Z,56.42
2022-11-23T23:39:58.859Z,56.41
2022-11-23T23:42:26.833Z,55.85
2022-11-23T23:44:54.913Z,56.39
2022-11-23T23:47:22.763Z,56.29
2022-11-23T23:49:52.030Z,56.21
2022-11-23T23:52:20.286Z,56.97
2022-11-23T23:54:48.163Z,56.91
2022-11-23T23:57:16.051Z,57.08
2022-11-23T23:59:43.894Z,56.32
